createdAt,value
2019-05-01T00:00:36.386Z,10.47
2019-05-01T00:01:36.413Z,10.42
2019-05-01T00:02:36.433Z,10.42
2019-05-01T00:03:36.463Z,10.58
2019-05-01T00:04:36.490Z,10.54
2019-05-01T00:05:36.507Z,10.52
2019-05-01T00:06:36.540Z,10.49
2019-05-01T00:07:36.562Z,10.57
2019-05-01T00:08:36.586Z,10.55
2019-05-01T00:09:36.615Z,10.65
2019-05-01T00:10:36.636Z,10.67
2019-05-01T00:11:36.662Z,10.67
2019-05-01T00:12:36.688Z,10.69
2019-05-01T00:13:36.712Z,10.67
2019-05-01T00:14:36.742Z,10.69
2019-05-01T00:15:36.768Z,10.54
2019-05-01T00:16:36.797Z,10.59
2019-05-01T00:17:36.819Z,10.51
2019-05-01T00:18:36.841Z,10.33
2019-05-01T00:19:36.874Z,10.35
2019-05-01T00:20:36.902Z,10.33
2019-05-01T00:21:36.924Z,10.25
2019-05-01T00:22:36.952Z,10.23
2019-05-01T00:23:36.973Z,10.28
2019-05-01T00:24:37.002Z,10.28
2019-05-01T00:25:37.025Z,10.26
2019-05-01T00:26:37.049Z,10.20
2019-05-01T00:27:37.079Z,10.14
2019-05-01T00:28:37.100Z,10.25
2019-05-01T00:29:37.126Z,10.26
2019-05-01T00:30:37.158Z,10.21
2019-05-01T00:31:37.178Z,10.15
2019-05-01T00:32:37.205Z,10.14
2019-05-01T00:33:37.231Z,10.05
2019-05-01T00:34:37.256Z,10.03
2019-05-01T00:35:37.277Z,10.11
2019-05-01T00:36:37.307Z,9.99
2019-05-01T00:37:37.330Z,9.95
2019-05-01T00:38:37.359Z,10.11
2019-05-01T00:39:37.392Z,10.03
2019-05-01T00:40:37.406Z,10.02
2019-05-01T00:41:37.438Z,9.95
2019-05-01T00:42:37.462Z,9.95
2019-05-01T00:43:37.486Z,9.96
2019-05-01T00:44:37.514Z,9.88
2019-05-01T00:45:37.532Z,9.88
2019-05-01T00:46:37.566Z,9.88
2019-05-01T00:47:37.583Z,9.84
2019-05-01T00:48:37.619Z,9.88
2019-05-01T00:49:37.638Z,9.89
2019-05-01T00:50:37.662Z,9.85
2019-05-01T00:51:37.690Z,9.95
2019-05-01T00:52:37.714Z,9.92
2019-05-01T00:53:37.738Z,9.96
2019-05-01T00:54:37.766Z,9.96
2019-05-01T00:55:37.787Z,9.99
2019-05-01T00:56:37.821Z,9.98
2019-05-01T00:57:37.839Z,9.96
2019-05-01T00:58:37.865Z,10.02
2019-05-01T00:59:37.895Z,10.08
2019-05-01T01:00:43.251Z,9.99
2019-05-01T01:01:37.945Z,10.05
2019-05-01T01:02:37.967Z,10.14
2019-05-01T01:03:37.997Z,10.11
2019-05-01T01:04:38.021Z,10.05
2019-05-01T01:05:38.043Z,9.99
2019-05-01T01:06:38.074Z,10.05
2019-05-01T01:07:38.095Z,10.05
2019-05-01T01:08:38.126Z,10.08
2019-05-01T01:09:38.150Z,9.99
2019-05-01T01:10:38.169Z,9.89
2019-05-01T01:11:38.194Z,9.84
2019-05-01T01:12:38.227Z,9.75
2019-05-01T01:13:38.245Z,9.75
2019-05-01T01:14:38.276Z,9.72
2019-05-01T01:15:38.301Z,9.75
2019-05-01T01:16:38.330Z,9.72
2019-05-01T01:17:38.353Z,9.75
2019-05-01T01:18:38.374Z,9.66
2019-05-01T01:19:38.408Z,9.66
2019-05-01T01:20:38.431Z,9.67
2019-05-01T01:21:38.448Z,9.66
2019-05-01T01:22:38.476Z,9.64
2019-05-01T01:23:38.499Z,9.71
2019-05-01T01:24:38.532Z,9.62
2019-05-01T01:25:38.551Z,9.64
2019-05-01T01:26:38.575Z,9.70
2019-05-01T01:27:38.607Z,9.52
2019-05-01T01:28:38.631Z,9.47
2019-05-01T01:29:38.659Z,9.41
2019-05-01T01:30:38.684Z,9.45
2019-05-01T01:31:38.708Z,9.41
2019-05-01T01:32:38.727Z,9.42
2019-05-01T01:33:40.184Z,9.34
2019-05-01T01:34:38.784Z,9.32
2019-05-01T01:35:38.810Z,9.35
2019-05-01T01:36:38.830Z,9.34
2019-05-01T01:37:38.859Z,9.39
2019-05-01T01:38:38.888Z,9.41
2019-05-01T01:39:38.906Z,9.35
2019-05-01T01:40:38.932Z,9.39
2019-05-01T01:41:38.959Z,9.38
2019-05-01T01:42:38.983Z,9.35
2019-05-01T01:43:39.005Z,9.41
2019-05-01T01:44:39.030Z,9.27
2019-05-01T01:45:39.057Z,9.37
2019-05-01T01:46:39.085Z,9.42
2019-05-01T01:47:39.110Z,9.45
2019-05-01T01:48:39.139Z,9.39
2019-05-01T01:49:39.159Z,9.34
2019-05-01T01:50:39.188Z,9.30
2019-05-01T01:51:39.211Z,9.30
2019-05-01T01:52:39.236Z,9.30
2019-05-01T01:53:39.257Z,9.29
2019-05-01T01:54:39.291Z,9.23
2019-05-01T01:55:39.314Z,9.35
2019-05-01T01:56:39.333Z,9.32
2019-05-01T01:57:39.364Z,9.35
2019-05-01T01:58:39.383Z,9.34
2019-05-01T01:59:39.409Z,9.37
2019-05-01T02:00:39.441Z,9.29
2019-05-01T02:01:39.465Z,9.42
2019-05-01T02:02:39.486Z,9.41
2019-05-01T02:03:39.509Z,9.39
2019-05-01T02:04:39.542Z,9.47
2019-05-01T02:05:39.566Z,9.48
2019-05-01T02:06:39.588Z,9.52
2019-05-01T02:07:39.618Z,9.48
2019-05-01T02:08:39.638Z,9.47
2019-05-01T02:09:39.661Z,9.47
2019-05-01T02:10:43.030Z,9.50
2019-05-01T02:11:39.748Z,9.38
2019-05-01T02:12:39.745Z,9.45
2019-05-01T02:13:39.768Z,9.53
2019-05-01T02:14:39.789Z,9.52
2019-05-01T02:15:39.812Z,9.47
2019-05-01T02:16:39.838Z,9.39
2019-05-01T02:17:39.865Z,9.34
2019-05-01T02:18:39.894Z,9.34
2019-05-01T02:19:39.922Z,9.37
2019-05-01T02:20:39.942Z,9.44
2019-05-01T02:21:39.989Z,9.39
2019-05-01T02:22:39.997Z,9.29
2019-05-01T02:23:40.023Z,9.35
2019-05-01T02:24:40.042Z,9.35
2019-05-01T02:25:40.072Z,9.37
2019-05-01T02:26:40.090Z,9.32
2019-05-01T02:27:40.125Z,9.42
2019-05-01T02:28:40.145Z,9.47
2019-05-01T02:29:40.165Z,9.48
2019-05-01T02:30:40.200Z,9.48
2019-05-01T02:31:40.219Z,9.48
2019-05-01T02:32:40.252Z,9.52
2019-05-01T02:33:40.271Z,9.53
2019-05-01T02:34:40.297Z,9.55
2019-05-01T02:35:40.333Z,9.50
2019-05-01T02:36:40.351Z,9.38
2019-05-01T02:37:40.374Z,9.39
2019-05-01T02:38:40.394Z,9.34
2019-05-01T02:39:40.423Z,9.41
2019-05-01T02:40:40.445Z,9.47
2019-05-01T02:41:41.677Z,9.50
2019-05-01T02:42:40.497Z,9.48
2019-05-01T02:43:40.522Z,9.60
2019-05-01T02:44:40.545Z,9.55
2019-05-01T02:45:40.571Z,9.48
2019-05-01T02:46:40.606Z,9.53
2019-05-01T02:47:40.624Z,9.50
2019-05-01T02:48:40.655Z,9.42
2019-05-01T02:49:40.675Z,9.44
2019-05-01T02:50:40.697Z,9.42
2019-05-01T02:51:40.736Z,9.42
2019-05-01T02:52:40.758Z,9.50
2019-05-01T02:53:40.777Z,9.50
2019-05-01T02:54:40.805Z,9.50
2019-05-01T02:55:40.830Z,9.50
2019-05-01T02:56:40.860Z,9.41
2019-05-01T02:57:40.885Z,9.30
2019-05-01T02:58:40.900Z,9.35
2019-05-01T02:59:40.931Z,9.37
2019-05-01T03:00:40.958Z,9.23
2019-05-01T03:01:46.867Z,9.30
2019-05-01T03:02:41.029Z,9.24
2019-05-01T03:03:41.027Z,9.23
2019-05-01T03:04:41.057Z,9.21
2019-05-01T03:05:41.077Z,9.27
2019-05-01T03:06:41.104Z,9.23
2019-05-01T03:07:41.131Z,9.21
2019-05-01T03:08:41.160Z,9.27
2019-05-01T03:09:41.180Z,9.30
2019-05-01T03:10:41.205Z,9.27
2019-05-01T03:11:41.227Z,9.16
2019-05-01T03:12:41.255Z,9.19
2019-05-01T03:13:41.284Z,9.04
2019-05-01T03:14:41.306Z,9.11
2019-05-01T03:15:41.331Z,9.17
2019-05-01T03:16:41.359Z,9.16
2019-05-01T03:17:41.380Z,9.04
2019-05-01T03:18:41.411Z,9.14
2019-05-01T03:19:41.439Z,9.14
2019-05-01T03:20:41.464Z,9.11
2019-05-01T03:21:41.492Z,9.17
2019-05-01T03:22:41.514Z,9.12
2019-05-01T03:23:41.537Z,9.26
2019-05-01T03:24:41.560Z,9.20
2019-05-01T03:25:41.585Z,9.24
2019-05-01T03:26:41.609Z,9.26
2019-05-01T03:27:41.679Z,9.20
2019-05-01T03:28:41.666Z,9.21
2019-05-01T03:29:41.687Z,9.24
2019-05-01T03:30:41.714Z,9.32
2019-05-01T03:31:41.740Z,9.38
2019-05-01T03:32:41.758Z,9.32
2019-05-01T03:33:41.784Z,9.32
2019-05-01T03:34:41.833Z,9.32
2019-05-01T03:35:41.837Z,9.32
2019-05-01T03:36:41.862Z,9.27
2019-05-01T03:37:41.896Z,9.37
2019-05-01T03:38:41.909Z,9.20
2019-05-01T03:39:41.938Z,9.16
2019-05-01T03:40:41.963Z,9.19
2019-05-01T03:41:41.988Z,9.11
2019-05-01T03:42:42.013Z,9.01
2019-05-01T03:43:42.043Z,9.05
2019-05-01T03:44:42.066Z,9.04
2019-05-01T03:45:42.097Z,8.98
2019-05-01T03:46:42.116Z,8.94
2019-05-01T03:47:42.139Z,9.04
2019-05-01T03:48:42.163Z,9.00
2019-05-01T03:49:42.186Z,8.98
2019-05-01T03:50:42.221Z,9.03
2019-05-01T03:51:42.250Z,8.94
2019-05-01T03:52:42.261Z,8.98
2019-05-01T03:53:42.286Z,8.98
2019-05-01T03:54:42.313Z,9.01
2019-05-01T03:55:42.344Z,9.03
2019-05-01T03:56:42.369Z,8.97
2019-05-01T03:57:42.389Z,8.98
2019-05-01T03:58:42.415Z,8.97
2019-05-01T03:59:42.441Z,8.98
2019-05-01T04:00:42.467Z,9.03
2019-05-01T04:01:42.493Z,9.04
2019-05-01T04:02:42.513Z,9.03
2019-05-01T04:03:42.538Z,9.08
2019-05-01T04:04:42.578Z,9.08
2019-05-01T04:05:42.588Z,9.11
2019-05-01T04:06:42.619Z,9.20
2019-05-01T04:07:42.643Z,9.19
2019-05-01T04:08:42.669Z,9.16
2019-05-01T04:09:42.688Z,9.24
2019-05-01T04:10:42.712Z,9.21
2019-05-01T04:11:42.743Z,9.29
2019-05-01T04:12:42.765Z,9.30
2019-05-01T04:13:42.793Z,9.23
2019-05-01T04:14:42.815Z,9.19
2019-05-01T04:15:42.845Z,9.05
2019-05-01T04:16:42.868Z,9.04
2019-05-01T04:17:42.894Z,9.05
2019-05-01T04:18:42.922Z,9.05
2019-05-01T04:19:42.948Z,9.16
2019-05-01T04:20:42.965Z,9.05
2019-05-01T04:21:42.994Z,9.11
2019-05-01T04:22:43.015Z,9.05
2019-05-01T04:23:43.060Z,9.08
2019-05-01T04:24:43.078Z,9.14
2019-05-01T04:25:43.097Z,9.19
2019-05-01T04:26:43.118Z,9.20
2019-05-01T04:27:43.145Z,9.24
2019-05-01T04:28:43.172Z,9.14
2019-05-01T04:29:43.193Z,9.20
2019-05-01T04:30:43.224Z,9.20
2019-05-01T04:31:43.247Z,9.19
2019-05-01T04:32:52.580Z,9.19
2019-05-01T04:33:43.295Z,9.19
2019-05-01T04:34:43.320Z,9.19
2019-05-01T04:35:43.349Z,9.14
2019-05-01T04:36:43.371Z,9.17
2019-05-01T04:37:43.402Z,9.16
2019-05-01T04:38:43.422Z,9.14
2019-05-01T04:39:43.466Z,9.12
2019-05-01T04:40:43.474Z,9.08
2019-05-01T04:41:43.499Z,9.04
2019-05-01T04:42:43.521Z,9.03
2019-05-01T04:43:43.546Z,9.04
2019-05-01T04:44:43.573Z,9.09
2019-05-01T04:45:43.597Z,9.05
2019-05-01T04:46:43.831Z,9.01
2019-05-01T04:47:43.650Z,9.00
2019-05-01T04:48:43.674Z,9.11
2019-05-01T04:49:43.698Z,9.16
2019-05-01T04:50:43.730Z,9.23
2019-05-01T04:51:43.750Z,9.23
2019-05-01T04:52:43.778Z,9.14
2019-05-01T04:54:43.827Z,9.17
2019-05-01T04:55:43.854Z,9.12
2019-05-01T04:56:43.872Z,9.12
2019-05-01T04:57:43.907Z,9.09
2019-05-01T04:59:43.952Z,9.04
2019-05-01T05:00:44.185Z,9.09
2019-05-01T05:01:44.009Z,9.08
2019-05-01T05:02:44.025Z,9.08
2019-05-01T05:03:44.057Z,9.12
2019-05-01T05:04:44.076Z,9.08
2019-05-01T05:05:44.102Z,9.14
2019-05-01T05:07:44.158Z,9.23
2019-05-01T05:09:44.613Z,9.29
2019-05-01T05:10:44.231Z,9.29
2019-05-01T05:11:44.258Z,9.37
2019-05-01T05:12:44.286Z,9.38
2019-05-01T05:13:46.967Z,9.37
2019-05-01T05:14:44.329Z,9.20
2019-05-01T05:16:44.388Z,9.26
2019-05-01T05:17:44.407Z,9.16
2019-05-01T05:18:44.438Z,9.11
2019-05-01T05:19:44.460Z,9.05
2019-05-01T05:20:44.489Z,9.08
2019-05-01T05:22:44.735Z,9.12
2019-05-01T05:24:44.584Z,9.08
2019-05-01T05:25:44.613Z,9.08
2019-05-01T05:26:44.634Z,9.16
2019-05-01T05:27:44.694Z,9.11
2019-05-01T05:29:44.713Z,9.26
2019-05-01T05:30:44.739Z,9.26
2019-05-01T05:31:44.767Z,9.30
2019-05-01T05:32:44.794Z,9.38
2019-05-01T05:33:44.822Z,9.32
2019-05-01T05:36:44.889Z,9.39
2019-05-01T05:37:44.916Z,9.39
2019-05-01T05:38:44.944Z,9.42
2019-05-01T05:39:44.966Z,9.48
2019-05-01T05:40:44.993Z,9.47
2019-05-01T05:41:45.022Z,9.47
2019-05-01T05:42:45.048Z,9.47
2019-05-01T05:43:45.066Z,9.52
2019-05-01T05:44:45.094Z,9.50
2019-05-01T05:45:45.120Z,9.45
2019-05-01T05:46:45.144Z,9.39
2019-05-01T05:47:45.174Z,9.38
2019-05-01T05:48:45.197Z,9.41
2019-05-01T05:49:45.222Z,9.47
2019-05-01T05:50:45.243Z,9.48
2019-05-01T05:51:45.273Z,9.44
2019-05-01T05:52:45.297Z,9.48
2019-05-01T05:53:45.529Z,9.48
2019-05-01T05:55:45.376Z,9.57
2019-05-01T05:56:45.400Z,9.63
2019-05-01T05:57:45.427Z,9.71
2019-05-01T05:58:45.451Z,9.60
2019-05-01T05:59:45.477Z,9.60
2019-05-01T06:01:45.526Z,9.64
2019-05-01T06:02:45.555Z,9.66
2019-05-01T06:03:45.574Z,9.60
2019-05-01T06:04:45.610Z,9.67
2019-05-01T06:05:45.633Z,9.67
2019-05-01T06:06:45.654Z,9.74
2019-05-01T06:07:45.678Z,9.74
2019-05-01T06:08:45.703Z,9.74
2019-05-01T06:09:48.537Z,9.84
2019-05-01T06:10:45.756Z,9.78
2019-05-01T06:11:45.783Z,9.72
2019-05-01T06:12:46.738Z,9.72
2019-05-01T06:13:45.828Z,9.74
2019-05-01T06:14:45.858Z,9.71
2019-05-01T06:15:48.813Z,9.71
2019-05-01T06:16:46.879Z,9.74
2019-05-01T06:17:45.933Z,9.75
2019-05-01T06:18:45.975Z,9.75
2019-05-01T06:19:49.632Z,9.74
2019-05-01T06:20:46.009Z,9.75
2019-05-01T06:21:46.037Z,9.72
2019-05-01T06:22:46.243Z,9.78
2019-05-01T06:23:46.083Z,9.72
2019-05-01T06:24:46.109Z,9.66
2019-05-01T06:25:46.140Z,9.62
2019-05-01T06:26:46.164Z,9.62
2019-05-01T06:27:49.268Z,9.66
2019-05-01T06:28:46.215Z,9.63
2019-05-01T06:29:46.241Z,9.64
2019-05-01T06:30:47.078Z,9.59
2019-05-01T06:31:46.294Z,9.55
2019-05-01T06:32:46.313Z,9.57
2019-05-01T06:33:48.588Z,9.64
2019-05-01T06:34:46.367Z,9.74
2019-05-01T06:35:46.392Z,9.90
2019-05-01T06:36:49.709Z,9.89
2019-05-01T06:37:46.451Z,10.08
2019-05-01T06:38:46.675Z,10.13
2019-05-01T06:39:47.846Z,10.10
2019-05-01T06:40:46.518Z,10.14
2019-05-01T06:41:46.549Z,10.11
2019-05-01T06:42:50.059Z,10.21
2019-05-01T06:43:46.601Z,10.18
2019-05-01T06:44:46.629Z,10.02
2019-05-01T06:45:46.924Z,9.99
2019-05-01T06:46:46.679Z,9.92
2019-05-01T06:47:46.702Z,9.90
2019-05-01T06:48:48.877Z,9.95
2019-05-01T06:49:46.750Z,9.95
2019-05-01T06:50:46.781Z,9.98
2019-05-01T06:51:47.941Z,9.93
2019-05-01T06:52:46.831Z,9.99
2019-05-01T06:53:47.086Z,10.10
2019-05-01T06:54:47.815Z,10.03
2019-05-01T06:55:46.908Z,10.14
2019-05-01T06:56:47.068Z,10.00
2019-05-01T06:57:46.954Z,9.98
2019-05-01T06:58:51.040Z,10.05
2019-05-01T06:59:47.003Z,10.05
2019-05-01T07:00:47.035Z,10.17
2019-05-01T07:01:47.059Z,10.23
2019-05-01T07:02:47.085Z,10.20
2019-05-01T07:04:02.948Z,10.21
2019-05-01T07:04:47.136Z,10.23
2019-05-01T07:05:49.009Z,10.36
2019-05-01T07:06:47.184Z,10.26
2019-05-01T07:07:48.139Z,10.25
2019-05-01T07:08:47.240Z,10.32
2019-05-01T07:09:49.248Z,10.32
2019-05-01T07:10:47.288Z,10.39
2019-05-01T07:11:52.485Z,10.33
2019-05-01T07:12:47.378Z,10.35
2019-05-01T07:13:47.369Z,10.38
2019-05-01T07:14:50.920Z,10.35
2019-05-01T07:15:47.415Z,10.18
2019-05-01T07:16:47.440Z,10.35
2019-05-01T07:17:48.906Z,10.39
2019-05-01T07:18:47.495Z,10.47
2019-05-01T07:19:47.524Z,10.38
2019-05-01T07:20:51.591Z,10.39
2019-05-01T07:21:47.571Z,10.36
2019-05-01T07:22:47.597Z,10.55
2019-05-01T07:23:47.913Z,10.58
2019-05-01T07:24:49.112Z,10.66
2019-05-01T07:25:47.675Z,10.75
2019-05-01T07:26:49.129Z,10.76
2019-05-01T07:27:47.732Z,10.90
2019-05-01T07:28:47.750Z,10.79
2019-05-01T07:29:47.773Z,10.67
2019-05-01T07:30:49.939Z,10.67
2019-05-01T07:31:47.830Z,10.63
2019-05-01T07:32:47.855Z,10.67
2019-05-01T07:33:51.249Z,10.65
2019-05-01T07:34:48.992Z,10.66
2019-05-01T07:35:47.938Z,10.61
2019-05-01T07:36:50.250Z,10.72
2019-05-01T07:37:47.986Z,10.65
2019-05-01T07:38:48.012Z,10.67
2019-05-01T07:39:50.049Z,10.57
2019-05-01T07:40:48.061Z,10.58
2019-05-01T07:41:48.091Z,10.67
2019-05-01T07:42:48.441Z,10.84
2019-05-01T07:43:48.138Z,10.94
2019-05-01T07:44:48.162Z,10.85
2019-05-01T07:45:48.191Z,10.80
2019-05-01T07:46:48.787Z,10.76
2019-05-01T07:47:48.241Z,10.76
2019-05-01T07:48:48.274Z,10.80
2019-05-01T07:49:52.744Z,10.79
2019-05-01T07:50:48.321Z,10.80
2019-05-01T07:51:48.347Z,10.90
2019-05-01T07:52:52.313Z,10.91
2019-05-01T07:53:48.397Z,10.95
2019-05-01T07:54:48.430Z,10.94
2019-05-01T07:55:48.736Z,11.12
2019-05-01T07:56:48.475Z,11.13
2019-05-01T07:57:48.500Z,11.09
2019-05-01T07:58:51.986Z,11.02
2019-05-01T07:59:48.555Z,10.87
2019-05-01T08:00:48.582Z,10.91
2019-05-01T08:01:54.042Z,10.72
2019-05-01T08:02:48.633Z,10.65
2019-05-01T08:03:48.658Z,10.63
2019-05-01T08:04:48.686Z,10.63
2019-05-01T08:05:48.717Z,10.59
2019-05-01T08:06:52.064Z,10.70
2019-05-01T08:07:48.765Z,10.83
2019-05-01T08:08:48.785Z,10.90
2019-05-01T08:09:50.240Z,11.08
2019-05-01T08:10:48.845Z,11.21
2019-05-01T08:11:48.865Z,11.12
2019-05-01T08:12:48.898Z,10.88
2019-05-01T08:13:48.915Z,10.95
2019-05-01T08:14:52.502Z,10.94
2019-05-01T08:15:48.970Z,10.92
2019-05-01T08:16:48.999Z,11.03
2019-05-01T08:17:53.203Z,11.18
2019-05-01T08:18:49.048Z,11.16
2019-05-01T08:19:49.078Z,11.02
2019-05-01T08:20:50.404Z,11.09
2019-05-01T08:21:49.124Z,11.03
2019-05-01T08:22:49.150Z,11.24
2019-05-01T08:23:49.181Z,11.30
2019-05-01T08:24:49.203Z,11.41
2019-05-01T08:25:49.234Z,11.31
2019-05-01T08:26:49.257Z,11.33
2019-05-01T08:27:50.944Z,11.38
2019-05-01T08:28:49.312Z,11.39
2019-05-01T08:29:49.336Z,11.43
2019-05-01T08:30:52.791Z,11.39
2019-05-01T08:31:49.392Z,11.24
2019-05-01T08:32:49.446Z,11.23
2019-05-01T08:33:50.185Z,11.15
2019-05-01T08:34:49.569Z,11.23
2019-05-01T08:35:49.501Z,11.30
2019-05-01T08:36:49.527Z,11.46
2019-05-01T08:37:49.549Z,11.46
2019-05-01T08:38:49.571Z,11.42
2019-05-01T08:39:49.597Z,11.45
2019-05-01T08:40:50.696Z,11.61
2019-05-01T08:41:49.650Z,11.66
2019-05-01T08:42:49.679Z,11.81
2019-05-01T08:43:53.903Z,11.89
2019-05-01T08:44:49.737Z,11.91
2019-05-01T08:45:49.756Z,11.91
2019-05-01T08:46:50.885Z,12.11
2019-05-01T08:47:49.811Z,12.10
2019-05-01T08:48:49.837Z,12.07
2019-05-01T08:49:50.868Z,12.10
2019-05-01T08:50:49.896Z,12.22
2019-05-01T08:51:49.916Z,11.82
2019-05-01T08:52:49.945Z,11.75
2019-05-01T08:53:52.724Z,11.60
2019-05-01T08:54:50.017Z,11.60
2019-05-01T08:55:50.029Z,11.68
2019-05-01T08:56:52.920Z,11.79
2019-05-01T08:57:50.082Z,11.94
2019-05-01T08:58:50.587Z,11.94
2019-05-01T08:59:50.129Z,12.05
2019-05-01T09:00:50.157Z,12.22
2019-05-01T09:01:50.584Z,12.31
2019-05-01T09:02:50.210Z,12.23
2019-05-01T09:03:54.147Z,12.13
2019-05-01T09:05:01.652Z,12.16
2019-05-01T09:05:52.294Z,12.36
2019-05-01T09:06:50.321Z,12.19
2019-05-01T09:07:51.202Z,12.04
2019-05-01T09:08:50.371Z,11.91
2019-05-01T09:09:50.402Z,12.05
2019-05-01T09:10:54.656Z,12.16
2019-05-01T09:11:50.454Z,12.16
2019-05-01T09:12:52.075Z,12.26
2019-05-01T09:13:50.504Z,12.33
2019-05-01T09:14:51.337Z,12.38
2019-05-01T09:15:50.561Z,12.41
2019-05-01T09:16:52.468Z,12.34
2019-05-01T09:17:50.616Z,12.41
2019-05-01T09:18:50.642Z,12.41
2019-05-01T09:19:50.674Z,12.28
2019-05-01T09:20:50.699Z,12.26
2019-05-01T09:21:50.718Z,12.19
2019-05-01T09:22:50.749Z,12.22
2019-05-01T09:23:51.793Z,12.26
2019-05-01T09:24:50.806Z,12.38
2019-05-01T09:25:50.828Z,12.41
2019-05-01T09:26:51.574Z,12.45
2019-05-01T09:27:50.883Z,12.37
2019-05-01T09:28:50.906Z,12.34
2019-05-01T09:29:51.509Z,12.38
2019-05-01T09:30:50.959Z,12.48
2019-05-01T09:31:50.991Z,12.62
2019-05-01T09:32:54.112Z,12.84
2019-05-01T09:33:51.040Z,13.09
2019-05-01T09:34:51.069Z,13.03
2019-05-01T09:35:51.101Z,12.89
2019-05-01T09:36:51.124Z,12.77
2019-05-01T09:37:51.158Z,12.61
2019-05-01T09:38:51.180Z,12.55
2019-05-01T09:39:51.229Z,12.40
2019-05-01T09:40:51.231Z,12.45
2019-05-01T09:41:51.257Z,12.41
2019-05-01T09:42:54.812Z,12.51
2019-05-01T09:43:51.319Z,12.65
2019-05-01T09:44:51.347Z,12.77
2019-05-01T09:45:51.369Z,12.88
2019-05-01T09:46:51.417Z,12.96
2019-05-01T09:47:51.427Z,13.17
2019-05-01T09:48:51.449Z,13.29
2019-05-01T09:49:54.061Z,13.39
2019-05-01T09:50:51.507Z,13.44
2019-05-01T09:51:51.537Z,13.39
2019-05-01T09:52:55.087Z,13.54
2019-05-01T09:53:51.592Z,13.24
2019-05-01T09:54:51.615Z,13.24
2019-05-01T09:55:51.647Z,13.24
2019-05-01T09:56:51.671Z,13.29
2019-05-01T09:57:51.699Z,13.35
2019-05-01T09:58:51.725Z,13.44
2019-05-01T09:59:51.753Z,13.57
2019-05-01T10:00:52.660Z,13.48
2019-05-01T10:01:51.808Z,13.29
2019-05-01T10:02:54.633Z,13.31
2019-05-01T10:03:54.478Z,13.16
2019-05-01T10:04:51.898Z,13.09
2019-05-01T10:05:51.916Z,13.20
2019-05-01T10:06:52.730Z,13.29
2019-05-01T10:07:51.969Z,13.39
2019-05-01T10:08:52.006Z,13.47
2019-05-01T10:09:52.435Z,13.40
2019-05-01T10:10:52.052Z,13.39
2019-05-01T10:11:52.088Z,13.63
2019-05-01T10:12:52.110Z,13.78
2019-05-01T10:13:53.639Z,13.69
2019-05-01T10:14:52.173Z,13.63
2019-05-01T10:15:52.201Z,13.63
2019-05-01T10:16:52.218Z,13.69
2019-05-01T10:17:52.250Z,13.70
2019-05-01T10:18:52.279Z,13.70
2019-05-01T10:19:52.303Z,13.72
2019-05-01T10:20:52.331Z,13.60
2019-05-01T10:21:52.361Z,13.60
2019-05-01T10:22:52.391Z,13.47
2019-05-01T10:23:52.912Z,13.69
2019-05-01T10:24:52.446Z,13.62
2019-05-01T10:25:52.473Z,13.72
2019-05-01T10:26:55.275Z,13.79
2019-05-01T10:27:53.027Z,14.08
2019-05-01T10:28:52.556Z,14.01
2019-05-01T10:29:52.578Z,14.16
2019-05-01T10:30:52.613Z,14.23
2019-05-01T10:31:52.637Z,14.31
2019-05-01T10:32:57.191Z,14.48
2019-05-01T10:33:52.695Z,14.93
2019-05-01T10:34:52.723Z,14.90
2019-05-01T10:35:52.753Z,15.01
2019-05-01T10:36:54.676Z,14.87
2019-05-01T10:37:52.810Z,15.10
2019-05-01T10:38:52.833Z,15.27
2019-05-01T10:39:54.177Z,15.27
2019-05-01T10:40:52.891Z,15.25
2019-05-01T10:41:52.918Z,15.08
2019-05-01T10:42:52.960Z,15.13
2019-05-01T10:43:52.974Z,15.07
2019-05-01T10:44:53.019Z,15.30
2019-05-01T10:45:53.034Z,15.59
2019-05-01T10:46:53.059Z,15.98
2019-05-01T10:47:53.091Z,17.02
2019-05-01T10:48:53.119Z,17.21
2019-05-01T10:49:53.148Z,17.45
2019-05-01T10:50:53.172Z,17.76
2019-05-01T10:51:53.201Z,18.34
2019-05-01T10:52:55.860Z,18.86
2019-05-01T10:53:53.262Z,19.00
2019-05-01T10:54:53.293Z,19.50
2019-05-01T10:55:53.926Z,19.60
2019-05-01T10:56:53.687Z,18.03
2019-05-01T10:57:54.003Z,18.19
2019-05-01T10:58:53.409Z,18.27
2019-05-01T10:59:53.653Z,18.59
2019-05-01T11:00:53.680Z,18.66
2019-05-01T11:01:53.724Z,18.54
2019-05-01T11:02:53.540Z,18.72
2019-05-01T11:03:53.559Z,18.53
2019-05-01T11:04:53.591Z,18.03
2019-05-01T11:05:56.001Z,17.84
2019-05-01T11:07:54.096Z,18.36
2019-05-01T11:08:53.718Z,17.39
2019-05-01T11:09:53.761Z,17.09
2019-05-01T11:11:54.030Z,18.01
2019-05-01T11:12:54.058Z,17.77
2019-05-01T11:13:53.886Z,17.79
2019-05-01T11:14:53.923Z,18.59
2019-05-01T11:15:54.146Z,19.07
2019-05-01T11:16:53.971Z,18.60
2019-05-01T11:17:54.005Z,18.10
2019-05-01T11:18:54.035Z,18.51
2019-05-01T11:19:54.070Z,18.91
2019-05-01T11:20:54.139Z,19.68
2019-05-01T11:21:54.135Z,19.98
2019-05-01T11:22:54.167Z,20.34
2019-05-01T11:23:54.200Z,20.15
2019-05-01T11:24:54.228Z,19.30
2019-05-01T11:25:54.259Z,19.13
2019-05-01T11:26:54.299Z,19.06
2019-05-01T11:27:54.329Z,19.27
2019-05-01T11:28:54.421Z,19.50
2019-05-01T11:29:54.393Z,20.00
2019-05-01T11:30:54.424Z,20.41
2019-05-01T11:31:54.463Z,20.29
2019-05-01T11:32:54.493Z,20.32
2019-05-01T11:33:54.529Z,19.49
2019-05-01T11:34:54.561Z,19.00
2019-05-01T11:35:54.593Z,19.28
2019-05-01T11:36:54.630Z,19.70
2019-05-01T11:37:54.659Z,19.92
2019-05-01T11:38:54.693Z,19.52
2019-05-01T11:39:54.732Z,19.28
2019-05-01T11:40:54.763Z,19.09
2019-05-01T11:41:54.793Z,19.12
2019-05-01T11:42:54.827Z,19.49
2019-05-01T11:43:54.863Z,20.08
2019-05-01T11:44:54.898Z,19.68
2019-05-01T11:45:54.928Z,20.23
2019-05-01T11:46:54.967Z,20.46
2019-05-01T11:47:55.001Z,20.53
2019-05-01T11:48:55.030Z,20.48
2019-05-01T11:49:55.065Z,20.58
2019-05-01T11:50:55.097Z,20.88
2019-05-01T11:51:55.129Z,20.75
2019-05-01T11:52:55.173Z,20.44
2019-05-01T11:53:55.196Z,20.38
2019-05-01T11:54:55.231Z,20.72
2019-05-01T11:55:55.271Z,20.82
2019-05-01T11:56:55.302Z,20.61
2019-05-01T11:57:55.339Z,20.15
2019-05-01T11:58:55.368Z,20.30
2019-05-01T11:59:55.433Z,20.32
2019-05-01T12:00:55.445Z,20.58
2019-05-01T12:01:55.473Z,21.09
2019-05-01T12:02:55.501Z,20.57
2019-05-01T12:03:55.542Z,20.51
2019-05-01T12:04:55.578Z,20.68
2019-05-01T12:05:55.611Z,20.88
2019-05-01T12:06:55.646Z,21.06
2019-05-01T12:07:55.674Z,21.28
2019-05-01T12:08:55.711Z,21.04
2019-05-01T12:09:55.747Z,20.02
2019-05-01T12:10:55.780Z,19.38
2019-05-01T12:11:55.809Z,20.08
2019-05-01T12:12:55.847Z,20.35
2019-05-01T12:13:55.884Z,20.30
2019-05-01T12:14:55.913Z,19.53
2019-05-01T12:15:55.946Z,19.17
2019-05-01T12:16:55.986Z,19.02
2019-05-01T12:17:56.019Z,19.24
2019-05-01T12:18:56.048Z,18.86
2019-05-01T12:19:56.082Z,19.07
2019-05-01T12:20:56.119Z,18.87
2019-05-01T12:21:56.152Z,18.91
2019-05-01T12:22:56.183Z,19.13
2019-05-01T12:23:56.222Z,19.12
2019-05-01T12:24:56.250Z,20.00
2019-05-01T12:25:56.284Z,20.54
2019-05-01T12:26:56.318Z,21.01
2019-05-01T12:27:56.347Z,21.11
2019-05-01T12:28:56.385Z,20.44
2019-05-01T12:29:56.421Z,20.48
2019-05-01T12:30:56.449Z,20.18
2019-05-01T12:31:56.480Z,20.27
2019-05-01T12:32:56.519Z,20.15
2019-05-01T12:33:56.556Z,20.10
2019-05-01T12:34:56.583Z,19.93
2019-05-01T12:35:56.620Z,20.15
2019-05-01T12:36:56.649Z,20.34
2019-05-01T12:37:56.686Z,20.30
2019-05-01T12:38:56.715Z,20.48
2019-05-01T12:39:56.751Z,20.83
2019-05-01T12:40:56.785Z,20.97
2019-05-01T12:41:56.818Z,20.34
2019-05-01T12:42:56.847Z,20.22
2019-05-01T12:43:56.881Z,20.60
2019-05-01T12:44:56.911Z,20.58
2019-05-01T12:45:56.943Z,20.32
2019-05-01T12:46:56.978Z,20.58
2019-05-01T12:47:57.017Z,20.44
2019-05-01T12:48:57.046Z,20.25
2019-05-01T12:49:57.081Z,19.83
2019-05-01T12:50:57.112Z,19.95
2019-05-01T12:52:09.906Z,19.17
2019-05-01T12:52:58.041Z,19.05
2019-05-01T12:53:57.209Z,19.35
2019-05-01T12:54:57.260Z,19.65
2019-05-01T12:55:57.273Z,19.60
2019-05-01T12:56:57.308Z,19.49
2019-05-01T12:57:57.339Z,19.45
2019-05-01T12:58:57.370Z,20.02
2019-05-01T13:00:08.079Z,20.42
2019-05-01T13:00:57.434Z,20.30
2019-05-01T13:01:57.470Z,20.18
2019-05-01T13:02:57.506Z,20.29
2019-05-01T13:03:57.538Z,20.75
2019-05-01T13:04:57.567Z,20.78
2019-05-01T13:05:57.599Z,20.83
2019-05-01T13:06:57.630Z,20.49
2019-05-01T13:07:57.663Z,20.40
2019-05-01T13:08:57.699Z,20.44
2019-05-01T13:09:57.725Z,20.74
2019-05-01T13:10:57.755Z,20.79
2019-05-01T13:11:57.790Z,21.15
2019-05-01T13:12:57.819Z,21.06
2019-05-01T13:13:57.855Z,21.40
2019-05-01T13:14:57.892Z,21.30
2019-05-01T13:15:57.917Z,21.31
2019-05-01T13:16:57.951Z,20.48
2019-05-01T13:17:57.984Z,19.86